createdAt,value
2023-03-19T00:00:53.231Z,97371.03
2023-03-19T00:01:55.073Z,97365.47
2023-03-19T00:02:56.795Z,97361.50
2023-03-19T00:03:58.491Z,97365.50
2023-03-19T00:05:00.251Z,97365.22
2023-03-19T00:06:02.332Z,97360.72
2023-03-19T00:07:03.830Z,97360.25
2023-03-19T00:08:05.771Z,97361.63
2023-03-19T00:09:07.367Z,97364.22
2023-03-19T00:10:09.431Z,97359.66
2023-03-19T00:11:13.392Z,97367.31
2023-03-19T00:12:15.056Z,97361.44
2023-03-19T00:13:17.014Z,97356.63
2023-03-19T00:14:18.652Z,97357.16
2023-03-19T00:15:20.387Z,97361.94
2023-03-19T00:16:21.978Z,97353.97
2023-03-19T00:17:23.591Z,97356.59
2023-03-19T00:18:25.210Z,97355.56
2023-03-19T00:19:27.373Z,97352.47
2023-03-19T00:20:28.967Z,97349.44
2023-03-19T00:21:31.248Z,97349.00
2023-03-19T00:22:32.751Z,97348.00
2023-03-19T00:23:35.351Z,97345.41
2023-03-19T00:24:36.935Z,97345.47
2023-03-19T00:25:38.453Z,97342.34
2023-03-19T00:26:40.263Z,97344.53
2023-03-19T00:27:42.257Z,97341.88
2023-03-19T00:28:43.925Z,97345.34
2023-03-19T00:29:45.476Z,97340.09
2023-03-19T00:30:47.043Z,97341.44
2023-03-19T00:31:49.154Z,97341.19
2023-03-19T00:32:50.749Z,97340.41
2023-03-19T00:33:52.369Z,97334.56
2023-03-19T00:34:53.946Z,97344.09
2023-03-19T00:35:55.636Z,97344.63
2023-03-19T00:36:57.196Z,97339.63
2023-03-19T00:37:58.814Z,97342.25
2023-03-19T00:39:00.880Z,97337.75
2023-03-19T00:40:02.502Z,97333.00
2023-03-19T00:41:05.821Z,97336.19
2023-03-19T00:42:07.671Z,97338.84
2023-03-19T00:43:09.240Z,97339.88
2023-03-19T00:44:10.785Z,97334.00
2023-03-19T00:45:13.219Z,97335.56
2023-03-19T00:46:14.786Z,97336.34
2023-03-19T00:47:16.372Z,97334.72
2023-03-19T00:48:17.892Z,97330.19
2023-03-19T00:49:19.475Z,97335.44
2023-03-19T00:50:21.034Z,97335.72
2023-03-19T00:51:24.054Z,97334.06
2023-03-19T00:52:25.790Z,97333.22
2023-03-19T00:53:27.362Z,97344.84
2023-03-19T00:54:28.991Z,97325.78
2023-03-19T00:55:30.577Z,97337.41
2023-03-19T00:56:32.210Z,97330.78
2023-03-19T00:57:33.725Z,97332.97
2023-03-19T00:58:35.648Z,97331.41
2023-03-19T00:59:37.184Z,97332.25
2023-03-19T01:00:39.173Z,97325.31
2023-03-19T01:01:40.785Z,97333.22
2023-03-19T01:02:42.347Z,97323.13
2023-03-19T01:03:45.409Z,97332.63
2023-03-19T01:04:49.902Z,97321.84
2023-03-19T01:05:51.760Z,97327.94
2023-03-19T01:06:53.355Z,97321.94
2023-03-19T01:07:54.952Z,97332.34
2023-03-19T01:08:56.664Z,97321.81
2023-03-19T01:09:58.176Z,97327.13
2023-03-19T01:11:11.896Z,97330.06
2023-03-19T01:12:13.605Z,97329.81
2023-03-19T01:13:15.333Z,97330.88
2023-03-19T01:14:17.922Z,97331.13
2023-03-19T01:15:19.629Z,97324.78
2023-03-19T01:16:21.242Z,97325.31
2023-03-19T01:17:22.988Z,97329.31
2023-03-19T01:18:24.574Z,97329.31
2023-03-19T01:19:26.536Z,97321.94
2023-03-19T01:20:28.171Z,97325.38
2023-03-19T01:21:31.200Z,97321.94
2023-03-19T01:22:36.234Z,97327.22
2023-03-19T01:23:37.849Z,97324.03
2023-03-19T01:24:39.382Z,97326.66
2023-03-19T01:25:40.958Z,97327.16
2023-03-19T01:26:43.706Z,97323.13
2023-03-19T01:27:45.342Z,97328.63
2023-03-19T01:28:47.288Z,97327.03
2023-03-19T01:29:48.842Z,97333.38
2023-03-19T01:30:51.038Z,97327.00
2023-03-19T01:31:52.700Z,97330.16
2023-03-19T01:32:54.607Z,97327.47
2023-03-19T01:33:56.311Z,97327.44
2023-03-19T01:34:57.861Z,97327.41
2023-03-19T01:36:03.217Z,97324.00
2023-03-19T01:37:04.839Z,97323.25
2023-03-19T01:38:06.457Z,97321.66
2023-03-19T01:39:08.112Z,97326.94
2023-03-19T01:40:13.261Z,97323.75
2023-03-19T01:41:15.009Z,97326.16
2023-03-19T01:42:17.007Z,97325.31
2023-03-19T01:43:24.207Z,97328.78
2023-03-19T01:44:35.244Z,97326.38
2023-03-19T01:45:39.077Z,97328.53
2023-03-19T01:46:41.243Z,97320.06
2023-03-19T01:47:44.389Z,97320.06
2023-03-19T01:48:53.354Z,97330.47
2023-03-19T01:49:56.449Z,97325.41
2023-03-19T01:50:59.456Z,97328.28
2023-03-19T01:52:04.110Z,97326.91
2023-03-19T01:53:06.760Z,97323.19
2023-03-19T01:54:13.529Z,97323.41
2023-03-19T01:55:15.289Z,97326.84
2023-03-19T01:56:27.703Z,97328.94
2023-03-19T01:57:31.226Z,97323.09
2023-03-19T01:58:33.034Z,97328.06
2023-03-19T01:59:45.221Z,97326.75
2023-03-19T02:00:47.248Z,97327.81
2023-03-19T02:02:15.098Z,97326.72
2023-03-19T02:03:17.604Z,97330.94
2023-03-19T02:04:19.758Z,97329.31
2023-03-19T02:05:25.913Z,97330.09
2023-03-19T02:06:30.250Z,97324.00
2023-03-19T02:07:34.572Z,97330.88
2023-03-19T02:08:36.859Z,97333.78
2023-03-19T02:09:40.260Z,97331.88
2023-03-19T02:10:44.562Z,97338.22
2023-03-19T02:11:46.606Z,97333.22
2023-03-19T02:12:49.050Z,97335.44
2023-03-19T02:13:50.731Z,97334.75
2023-03-19T02:14:52.793Z,97331.53
2023-03-19T02:15:55.083Z,97336.25
2023-03-19T02:16:56.983Z,97341.53
2023-03-19T02:17:58.619Z,97332.47
2023-03-19T02:19:01.406Z,97343.81
2023-03-19T02:20:23.910Z,97336.09
2023-03-19T02:21:25.760Z,97338.69
2023-03-19T02:22:29.992Z,97333.38
2023-03-19T02:23:55.549Z,97336.09
2023-03-19T02:25:02.686Z,97338.22
2023-03-19T02:26:24.811Z,97339.78
2023-03-19T02:27:26.602Z,97341.91
2023-03-19T02:28:28.902Z,97344.06
2023-03-19T02:29:30.577Z,97343.03
2023-03-19T02:30:34.546Z,97337.22
2023-03-19T02:31:37.178Z,97343.81
2023-03-19T02:32:38.767Z,97346.19
2023-03-19T02:33:40.555Z,97347.00
2023-03-19T02:34:43.651Z,97354.69
2023-03-19T02:35:48.672Z,97344.59
2023-03-19T02:37:02.597Z,97352.06
2023-03-19T02:38:05.458Z,97346.28
2023-03-19T02:39:21.536Z,97351.59
2023-03-19T02:40:27.193Z,97357.97
2023-03-19T02:41:31.569Z,97351.06
2023-03-19T02:42:33.437Z,97353.22
2023-03-19T02:43:38.363Z,97357.50
2023-03-19T02:44:40.139Z,97359.06
2023-03-19T02:45:41.987Z,97354.81
2023-03-19T02:46:43.529Z,97359.56
2023-03-19T02:47:45.215Z,97357.72
2023-03-19T02:48:46.753Z,97355.16
2023-03-19T02:49:48.299Z,97368.22
2023-03-19T02:50:50.225Z,97360.56
2023-03-19T02:51:51.859Z,97358.19
2023-03-19T02:52:54.086Z,97363.56
2023-03-19T02:53:55.721Z,97362.00
2023-03-19T02:54:57.240Z,97363.63
2023-03-19T02:55:58.796Z,97361.25
2023-03-19T02:57:01.083Z,97364.19
2023-03-19T02:58:02.675Z,97357.06
2023-03-19T02:59:04.482Z,97364.44
2023-03-19T03:00:07.755Z,97364.22
2023-03-19T03:01:09.342Z,97364.78
2023-03-19T03:02:11.206Z,97373.78
2023-03-19T03:03:13.192Z,97372.72
2023-03-19T03:04:16.674Z,97372.72
2023-03-19T03:05:18.494Z,97378.28
2023-03-19T03:06:20.097Z,97367.97
2023-03-19T03:07:22.190Z,97374.56
2023-03-19T03:08:23.813Z,97381.19
2023-03-19T03:09:25.838Z,97376.94
2023-03-19T03:10:27.525Z,97375.88
2023-03-19T03:11:29.147Z,97377.69
2023-03-19T03:12:31.627Z,97375.28
2023-03-19T03:13:33.276Z,97378.44
2023-03-19T03:14:35.215Z,97377.34
2023-03-19T03:15:36.788Z,97369.63
2023-03-19T03:16:38.416Z,97377.28
2023-03-19T03:17:40.935Z,97382.28
2023-03-19T03:18:42.506Z,97373.50
2023-03-19T03:19:44.127Z,97379.06
2023-03-19T03:20:45.715Z,97386.19
2023-03-19T03:21:47.300Z,97378.50
2023-03-19T03:22:49.116Z,97372.16
2023-03-19T03:23:51.253Z,97369.53
2023-03-19T03:24:52.794Z,97378.31
2023-03-19T03:25:54.353Z,97377.03
2023-03-19T03:26:56.252Z,97375.75
2023-03-19T03:27:57.813Z,97378.66
2023-03-19T03:28:59.396Z,97380.50
2023-03-19T03:30:01.081Z,97377.59
2023-03-19T03:31:02.762Z,97369.88
2023-03-19T03:32:04.520Z,97373.59
2023-03-19T03:33:07.277Z,97371.72
2023-03-19T03:34:08.867Z,97375.44
2023-03-19T03:35:11.231Z,97379.16
2023-03-19T03:36:13.475Z,97369.38
2023-03-19T03:37:15.033Z,97371.50
2023-03-19T03:38:16.690Z,97374.38
2023-03-19T03:39:19.121Z,97371.47
2023-03-19T03:40:21.436Z,97379.66
2023-03-19T03:41:23.060Z,97371.97
2023-03-19T03:42:24.697Z,97372.44
2023-03-19T03:43:26.567Z,97375.06
2023-03-19T03:44:28.139Z,97372.94
2023-03-19T03:45:29.738Z,97378.22
2023-03-19T03:46:31.668Z,97375.00
2023-03-19T03:47:33.183Z,97379.81
2023-03-19T03:48:35.833Z,97380.31
2023-03-19T03:49:37.356Z,97372.34
2023-03-19T03:50:38.988Z,97374.00
2023-03-19T03:51:41.195Z,97372.44
2023-03-19T03:52:42.895Z,97377.00
2023-03-19T03:53:44.714Z,97379.47
2023-03-19T03:54:46.231Z,97382.38
2023-03-19T03:55:47.834Z,97382.16
2023-03-19T03:56:50.712Z,97380.06
2023-03-19T03:57:52.261Z,97381.13
2023-03-19T03:58:53.809Z,97386.41
2023-03-19T03:59:55.363Z,97382.97
2023-03-19T04:00:56.946Z,97388.53
2023-03-19T04:01:58.664Z,97383.81
2023-03-19T04:03:00.370Z,97382.00
2023-03-19T04:04:02.757Z,97385.44
2023-03-19T04:05:04.651Z,97391.25
2023-03-19T04:06:06.224Z,97389.94
2023-03-19T04:07:08.286Z,97391.25
2023-03-19T04:08:10.654Z,97381.72
2023-03-19T04:09:12.404Z,97385.44
2023-03-19T04:10:15.475Z,97385.97
2023-03-19T04:11:17.117Z,97386.50
2023-03-19T04:12:18.706Z,97387.81
2023-03-19T04:13:20.436Z,97387.56
2023-03-19T04:14:22.377Z,97385.16
2023-03-19T04:15:24.057Z,97380.91
2023-03-19T04:16:25.707Z,97389.38
2023-03-19T04:17:27.282Z,97384.91
2023-03-19T04:18:28.845Z,97393.09
2023-03-19T04:19:31.714Z,97387.56
2023-03-19T04:20:33.600Z,97383.31
2023-03-19T04:21:35.316Z,97389.41
2023-03-19T04:22:36.898Z,97383.56
2023-03-19T04:23:38.563Z,97373.25
2023-03-19T04:24:40.653Z,97386.50
2023-03-19T04:25:42.255Z,97383.53
2023-03-19T04:26:43.848Z,97386.47
2023-03-19T04:27:46.223Z,97388.59
2023-03-19T04:28:47.751Z,97388.34
2023-03-19T04:29:49.631Z,97384.91
2023-03-19T04:30:51.529Z,97392.28
2023-03-19T04:31:53.193Z,97397.06
2023-03-19T04:32:54.889Z,97395.72
2023-03-19T04:33:56.435Z,97394.41
2023-03-19T04:34:58.674Z,97393.38
2023-03-19T04:36:00.693Z,97401.31
2023-03-19T04:37:02.275Z,97413.22
2023-03-19T04:38:04.297Z,97411.63
2023-03-19T04:39:06.152Z,97411.63
2023-03-19T04:40:08.738Z,97410.81
2023-03-19T04:41:10.914Z,97414.53
2023-03-19T04:42:12.567Z,97406.59
2023-03-19T04:43:14.456Z,97414.81
2023-03-19T04:44:17.027Z,97412.41
2023-03-19T04:45:18.591Z,97414.00
2023-03-19T04:46:20.231Z,97415.31
2023-03-19T04:47:22.165Z,97407.38
2023-03-19T04:48:23.850Z,97418.75
2023-03-19T04:49:26.034Z,97414.81
2023-03-19T04:50:27.983Z,97410.81
2023-03-19T04:51:29.535Z,97415.03
2023-03-19T04:52:31.252Z,97412.91
2023-03-19T04:53:33.019Z,97405.47
2023-03-19T04:54:34.568Z,97404.94
2023-03-19T04:55:36.072Z,97403.03
2023-03-19T04:56:37.701Z,97408.31
2023-03-19T04:57:39.221Z,97414.16
2023-03-19T04:58:40.848Z,97410.72
2023-03-19T04:59:42.803Z,97415.41
2023-03-19T05:00:46.923Z,97412.22
2023-03-19T05:01:48.541Z,97414.84
2023-03-19T05:02:50.135Z,97413.25
2023-03-19T05:03:51.734Z,97417.47
2023-03-19T05:04:53.701Z,97415.91
2023-03-19T05:05:55.301Z,97420.66
2023-03-19T05:06:57.467Z,97416.22
2023-03-19T05:07:59.251Z,97415.97
2023-03-19T05:09:01.202Z,97417.03
2023-03-19T05:10:03.066Z,97425.25
2023-03-19T05:11:04.765Z,97414.94
2023-03-19T05:12:06.895Z,97414.13
2023-03-19T05:13:08.492Z,97416.00
2023-03-19T05:14:10.084Z,97421.81
2023-03-19T05:15:12.061Z,97416.00
2023-03-19T05:16:13.990Z,97418.94
2023-03-19T05:17:15.778Z,97419.22
2023-03-19T05:18:17.313Z,97421.88
2023-03-19T05:19:18.973Z,97419.25
2023-03-19T05:20:20.619Z,97417.16
2023-03-19T05:21:22.256Z,97427.75
2023-03-19T05:22:24.127Z,97419.81
2023-03-19T05:23:25.800Z,97424.84
2023-03-19T05:24:27.532Z,97428.53
2023-03-19T05:25:30.179Z,97428.28
2023-03-19T05:26:32.363Z,97434.13
2023-03-19T05:27:34.050Z,97424.03
2023-03-19T05:28:35.659Z,97429.88
2023-03-19T05:29:39.805Z,97428.81
2023-03-19T05:30:43.248Z,97420.06
2023-03-19T05:31:44.799Z,97421.41
2023-03-19T05:32:46.844Z,97420.09
2023-03-19T05:33:48.530Z,97419.28
2023-03-19T05:34:50.174Z,97425.91
2023-03-19T05:35:52.060Z,97419.81
2023-03-19T05:36:53.557Z,97418.72
2023-03-19T05:37:55.838Z,97423.75
2023-03-19T05:38:57.380Z,97427.19
2023-03-19T05:39:58.967Z,97419.50
2023-03-19T05:41:07.041Z,97419.22
2023-03-19T05:42:08.742Z,97423.44
2023-03-19T05:43:11.706Z,97428.72
2023-03-19T05:44:13.335Z,97426.31
2023-03-19T05:45:15.090Z,97428.16
2023-03-19T05:46:16.736Z,97421.53
2023-03-19T05:47:18.341Z,97425.50
2023-03-19T05:48:20.325Z,97419.66
2023-03-19T05:49:22.224Z,97425.78
2023-03-19T05:50:23.830Z,97421.25
2023-03-19T05:51:25.663Z,97428.69
2023-03-19T05:52:27.486Z,97423.38
2023-03-19T05:53:29.751Z,97423.38
2023-03-19T05:54:31.327Z,97418.31
2023-03-19T05:55:32.974Z,97413.28
2023-03-19T05:56:34.616Z,97424.69
2023-03-19T05:57:36.306Z,97430.81
2023-03-19T05:58:37.914Z,97425.31
2023-03-19T05:59:39.437Z,97423.44
2023-03-19T06:00:41.596Z,97421.81
2023-03-19T06:01:43.159Z,97433.78
2023-03-19T06:02:44.814Z,97424.53
2023-03-19T06:03:46.470Z,97430.88
2023-03-19T06:04:48.106Z,97424.78
2023-03-19T06:05:50.878Z,97424.00
2023-03-19T06:06:52.430Z,97419.28
2023-03-19T06:07:53.981Z,97422.19
2023-03-19T06:08:55.631Z,97427.22
2023-03-19T06:09:57.257Z,97423.00
2023-03-19T06:10:58.847Z,97422.47
2023-03-19T06:12:00.392Z,97422.94
2023-03-19T06:13:01.904Z,97420.31
2023-03-19T06:14:03.581Z,97427.22
2023-03-19T06:15:05.479Z,97424.00
2023-03-19T06:16:07.426Z,97419.25
2023-03-19T06:17:09.827Z,97418.41
2023-03-19T06:18:11.402Z,97423.44
2023-03-19T06:19:12.973Z,97420.25
2023-03-19T06:20:14.591Z,97420.53
2023-03-19T06:21:16.549Z,97426.34
2023-03-19T06:22:18.122Z,97426.38
2023-03-19T06:23:19.771Z,97421.38
2023-03-19T06:24:21.341Z,97424.03
2023-03-19T06:25:22.909Z,97421.38
2023-03-19T06:26:27.582Z,97416.09
2023-03-19T06:27:29.298Z,97417.19
2023-03-19T06:28:30.843Z,97416.09
2023-03-19T06:29:32.445Z,97422.19
2023-03-19T06:30:34.714Z,97421.41
2023-03-19T06:31:39.448Z,97420.06
2023-03-19T06:32:41.818Z,97424.00
2023-03-19T06:33:43.673Z,97426.41
2023-03-19T06:34:45.334Z,97427.75
2023-03-19T06:35:47.097Z,97431.44
2023-03-19T06:36:48.769Z,97425.91
2023-03-19T06:37:50.879Z,97436.72
2023-03-19T06:38:52.510Z,97428.19
2023-03-19T06:39:54.882Z,97428.69
2023-03-19T06:40:56.493Z,97430.75
2023-03-19T06:41:58.087Z,97424.88
2023-03-19T06:42:59.677Z,97432.72
2023-03-19T06:44:01.411Z,97431.00
2023-03-19T06:45:03.632Z,97430.88
2023-03-19T06:46:08.265Z,97434.88
2023-03-19T06:47:11.266Z,97429.94
2023-03-19T06:48:12.826Z,97430.88
2023-03-19T06:49:14.388Z,97429.50
2023-03-19T06:50:19.319Z,97437.13
2023-03-19T06:51:21.245Z,97432.25
2023-03-19T06:52:22.767Z,97435.63
2023-03-19T06:53:24.364Z,97432.00
2023-03-19T06:54:25.938Z,97426.47
2023-03-19T06:55:27.470Z,97432.13
2023-03-19T06:56:29.514Z,97425.03
2023-03-19T06:57:31.057Z,97427.97
2023-03-19T06:58:32.608Z,97428.19
2023-03-19T06:59:34.169Z,97427.69
2023-03-19T07:00:36.031Z,97417.75
2023-03-19T07:01:37.960Z,97418.47
2023-03-19T07:02:40.349Z,97421.13
2023-03-19T07:03:41.958Z,97423.53
2023-03-19T07:04:43.541Z,97421.97
2023-03-19T07:05:45.138Z,97417.91
2023-03-19T07:06:46.766Z,97424.94
2023-03-19T07:07:48.367Z,97423.22
2023-03-19T07:08:49.849Z,97423.53
2023-03-19T07:09:52.172Z,97425.31
2023-03-19T07:10:53.785Z,97420.06
2023-03-19T07:11:55.284Z,97431.28
2023-03-19T07:12:56.863Z,97420.34
2023-03-19T07:13:58.451Z,97426.00
2023-03-19T07:15:00.291Z,97425.59
2023-03-19T07:16:02.850Z,97420.09
2023-03-19T07:17:04.545Z,97416.94
2023-03-19T07:18:06.302Z,97425.97
2023-03-19T07:19:07.900Z,97417.81
2023-03-19T07:20:10.313Z,97414.09
2023-03-19T07:21:12.004Z,97418.69
2023-03-19T07:22:13.640Z,97415.38
2023-03-19T07:23:15.444Z,97409.81
2023-03-19T07:24:17.080Z,97410.06
2023-03-19T07:25:18.620Z,97409.53
2023-03-19T07:26:20.394Z,97408.28
2023-03-19T07:27:22.107Z,97408.91
2023-03-19T07:28:23.685Z,97406.72
2023-03-19T07:29:25.642Z,97409.50
2023-03-19T07:30:27.291Z,97405.34
2023-03-19T07:31:28.888Z,97415.03
2023-03-19T07:32:30.656Z,97408.41
2023-03-19T07:33:32.193Z,97409.00
2023-03-19T07:34:33.774Z,97408.69
2023-03-19T07:35:35.722Z,97403.44
2023-03-19T07:36:37.301Z,97409.41
2023-03-19T07:37:38.824Z,97408.50
2023-03-19T07:38:43.455Z,97403.25
2023-03-19T07:39:44.980Z,97411.31
2023-03-19T07:41:00.894Z,97404.25
2023-03-19T07:42:03.516Z,97404.06
2023-03-19T07:43:05.327Z,97401.03
2023-03-19T07:44:07.118Z,97406.91
2023-03-19T07:45:09.269Z,97404.66
2023-03-19T07:46:11.731Z,97398.22
2023-03-19T07:47:27.921Z,97395.97
2023-03-19T07:48:29.967Z,97402.34
2023-03-19T07:49:31.671Z,97396.47
2023-03-19T07:50:33.416Z,97397.72
2023-03-19T07:51:35.387Z,97388.03
2023-03-19T07:52:37.054Z,97394.25
2023-03-19T07:53:38.615Z,97390.53
2023-03-19T07:54:40.827Z,97388.34
2023-03-19T07:55:42.468Z,97384.47
2023-03-19T07:56:44.097Z,97378.94
2023-03-19T07:57:45.662Z,97384.47
2023-03-19T07:58:47.319Z,97380.50
2023-03-19T07:59:49.200Z,97381.59
2023-03-19T08:00:50.935Z,97375.16
2023-03-19T08:01:52.520Z,97381.75
2023-03-19T08:02:54.177Z,97376.88
2023-03-19T08:03:55.738Z,97376.28
2023-03-19T08:04:58.626Z,97373.94
2023-03-19T08:06:00.248Z,97374.81
2023-03-19T08:07:01.794Z,97371.38
2023-03-19T08:08:03.516Z,97371.38
2023-03-19T08:09:05.097Z,97374.50
2023-03-19T08:10:08.132Z,97366.81
2023-03-19T08:11:10.511Z,97368.09
2023-03-19T08:12:12.240Z,97364.59
2023-03-19T08:13:14.267Z,97365.22
2023-03-19T08:14:19.306Z,97367.88
2023-03-19T08:15:21.866Z,97359.69
2023-03-19T08:16:23.698Z,97366.13
2023-03-19T08:17:25.295Z,97363.00
2023-03-19T08:18:27.307Z,97363.13
2023-03-19T08:19:28.919Z,97358.69
2023-03-19T08:20:31.909Z,97363.03
2023-03-19T08:21:35.318Z,97365.22
2023-03-19T08:22:38.580Z,97360.63
2023-03-19T08:23:40.739Z,97362.53
2023-03-19T08:24:42.306Z,97366.56
2023-03-19T08:25:43.977Z,97357.97
2023-03-19T08:26:45.588Z,97362.66
2023-03-19T08:27:47.415Z,97357.34
2023-03-19T08:28:49.063Z,97357.94
2023-03-19T08:29:50.722Z,97355.53
2023-03-19T08:30:52.355Z,97353.09
2023-03-19T08:31:54.941Z,97354.75
2023-03-19T08:32:57.477Z,97348.53
2023-03-19T08:34:02.810Z,97345.38
2023-03-19T08:35:06.118Z,97347.53
2023-03-19T08:36:13.227Z,97352.44
2023-03-19T08:37:15.074Z,97347.91
2023-03-19T08:38:16.846Z,97342.28
2023-03-19T08:39:19.233Z,97347.00
2023-03-19T08:40:20.977Z,97347.00
2023-03-19T08:41:23.429Z,97345.88
2023-03-19T08:42:25.145Z,97332.72
2023-03-19T08:43:26.732Z,97341.63
2023-03-19T08:44:28.548Z,97336.13
2023-03-19T08:45:30.191Z,97337.94
2023-03-19T08:46:32.037Z,97338.78
2023-03-19T08:47:33.700Z,97337.47
2023-03-19T08:48:35.329Z,97337.09
2023-03-19T08:49:37.035Z,97338.78
2023-03-19T08:50:38.625Z,97332.59
2023-03-19T08:51:40.571Z,97333.41
2023-03-19T08:52:42.750Z,97331.53
2023-03-19T08:53:44.328Z,97337.44
2023-03-19T08:54:46.081Z,97330.03
2023-03-19T08:55:55.172Z,97330.31
2023-03-19T08:56:57.114Z,97325.78
2023-03-19T08:57:58.714Z,97328.03
2023-03-19T08:59:00.242Z,97330.03
2023-03-19T09:00:05.680Z,97323.34
2023-03-19T09:01:10.728Z,97323.34
2023-03-19T09:02:12.524Z,97324.59
2023-03-19T09:03:14.095Z,97325.41
2023-03-19T09:04:16.114Z,97324.78
2023-03-19T09:05:23.333Z,97317.72
2023-03-19T09:06:25.175Z,97315.16
2023-03-19T09:07:26.870Z,97318.34
2023-03-19T09:08:29.368Z,97315.47
2023-03-19T09:11:47.229Z,97315.31
2023-03-19T09:12:48.769Z,97314.69
2023-03-19T09:13:50.546Z,97308.69
2023-03-19T09:14:52.148Z,97308.16
2023-03-19T09:15:54.076Z,97306.88
2023-03-19T09:16:55.849Z,97312.78
2023-03-19T09:17:57.447Z,97302.53
2023-03-19T09:18:59.557Z,97292.56
2023-03-19T09:20:01.148Z,97300.75
2023-03-19T09:21:03.554Z,97293.69
2023-03-19T09:22:06.102Z,97286.47
2023-03-19T09:23:08.228Z,97289.03
2023-03-19T09:24:09.942Z,97290.25
2023-03-19T09:25:11.942Z,97294.28
2023-03-19T09:26:13.512Z,97289.84
2023-03-19T09:27:15.677Z,97291.03
2023-03-19T09:28:17.582Z,97296.00
2023-03-19T09:29:19.319Z,97292.66
2023-03-19T09:30:21.833Z,97289.94
2023-03-19T09:31:23.930Z,97285.84
2023-03-19T09:32:25.848Z,97291.00
2023-03-19T09:33:27.417Z,97281.00
2023-03-19T09:34:29.003Z,97283.78
2023-03-19T09:35:31.517Z,97293.59
2023-03-19T09:36:33.534Z,97276.25
2023-03-19T09:37:35.606Z,97286.91
2023-03-19T09:38:37.230Z,97287.00
2023-03-19T09:39:38.969Z,97276.56
2023-03-19T09:40:46.968Z,97275.91
2023-03-19T09:42:06.915Z,97273.00
2023-03-19T09:43:19.896Z,97270.44
2023-03-19T09:44:39.910Z,97274.94
2023-03-19T09:45:41.576Z,97273.47
2023-03-19T09:46:52.741Z,97273.38
2023-03-19T09:48:01.657Z,97266.31
2023-03-19T09:49:11.549Z,97265.06
2023-03-19T09:50:14.439Z,97261.50
2023-03-19T09:51:26.201Z,97263.28
2023-03-19T09:52:30.466Z,97266.00
2023-03-19T09:53:47.263Z,97261.91
2023-03-19T09:54:55.855Z,97263.03
2023-03-19T09:56:00.211Z,97261.03
2023-03-19T09:57:02.019Z,97263.47
2023-03-19T09:58:13.720Z,97258.78
2023-03-19T09:59:15.372Z,97259.56
2023-03-19T10:00:27.601Z,97255.41
2023-03-19T10:01:35.415Z,97248.91
2023-03-19T10:02:42.754Z,97257.00
2023-03-19T10:04:06.789Z,97255.31
2023-03-19T10:05:23.722Z,97252.28
2023-03-19T10:06:29.619Z,97246.22
2023-03-19T10:07:57.935Z,97250.72
2023-03-19T10:09:21.463Z,97250.72
2023-03-19T10:10:56.206Z,97247.34
2023-03-19T10:12:03.775Z,97241.47
2023-03-19T10:13:27.269Z,97235.78
2023-03-19T10:15:02.988Z,97242.03
2023-03-19T10:16:06.422Z,97241.31
2023-03-19T10:17:14.960Z,97239.16
2023-03-19T10:18:19.811Z,97236.13
2023-03-19T10:19:50.329Z,97232.28
2023-03-19T10:21:01.203Z,97231.19
2023-03-19T10:22:12.384Z,97235.59
2023-03-19T10:23:46.883Z,97224.75
2023-03-19T10:24:50.459Z,97214.25
2023-03-19T10:25:55.850Z,97220.13
2023-03-19T10:27:19.871Z,97217.34
2023-03-19T10:28:22.444Z,97217.59
2023-03-19T10:29:24.893Z,97213.06
2023-03-19T10:30:26.679Z,97204.50
2023-03-19T10:31:43.317Z,97202.88
2023-03-19T10:32:53.956Z,97202.94
2023-03-19T10:34:04.194Z,97199.09
2023-03-19T10:35:16.879Z,97197.97
2023-03-19T10:36:21.620Z,97196.50
2023-03-19T10:37:27.025Z,97198.44
2023-03-19T10:38:28.826Z,97200.38
2023-03-19T10:39:35.949Z,97186.56
2023-03-19T10:40:49.114Z,97187.75
2023-03-19T10:42:00.908Z,97187.38
2023-03-19T10:43:21.031Z,97183.81
2023-03-19T10:44:33.249Z,97184.25
2023-03-19T10:45:38.795Z,97180.25
2023-03-19T10:46:41.303Z,97175.16
2023-03-19T10:47:43.771Z,97173.16
2023-03-19T10:48:46.819Z,97164.78
2023-03-19T10:49:50.591Z,97169.84
2023-03-19T10:51:06.118Z,97162.19
2023-03-19T10:52:20.691Z,97160.44
2023-03-19T10:53:37.989Z,97165.00
2023-03-19T10:54:43.638Z,97161.19
2023-03-19T10:55:53.804Z,97154.19
2023-03-19T10:56:57.452Z,97156.28
2023-03-19T10:58:17.375Z,97144.16
2023-03-19T10:59:39.451Z,97148.84
2023-03-19T11:00:41.204Z,97146.22
2023-03-19T11:01:43.244Z,97136.78
2023-03-19T11:02:51.541Z,97135.91
2023-03-19T11:03:58.241Z,97134.81
2023-03-19T11:05:09.212Z,97137.22
2023-03-19T11:06:20.288Z,97136.72
2023-03-19T11:07:24.848Z,97132.53
2023-03-19T11:08:35.567Z,97129.66
2023-03-19T11:09:40.304Z,97128.66
2023-03-19T11:10:47.102Z,97117.13
2023-03-19T11:11:52.074Z,97118.50
2023-03-19T11:13:16.056Z,97115.91
2023-03-19T11:14:39.195Z,97118.81
2023-03-19T11:15:41.236Z,97111.56
2023-03-19T11:16:55.018Z,97104.59
2023-03-19T11:18:06.167Z,97108.28
2023-03-19T11:19:20.309Z,97106.31
2023-03-19T11:20:28.120Z,97101.47
2023-03-19T11:21:32.959Z,97101.91
2023-03-19T11:22:39.376Z,97100.69
2023-03-19T11:23:42.788Z,97088.13
2023-03-19T11:24:56.381Z,97087.25
2023-03-19T11:26:04.450Z,97081.66
2023-03-19T11:27:08.149Z,97081.72
2023-03-19T11:28:12.969Z,97081.75
2023-03-19T11:29:14.563Z,97078.09
2023-03-19T11:30:19.810Z,97080.56
2023-03-19T11:31:34.052Z,97073.28
2023-03-19T11:32:53.650Z,97064.84
2023-03-19T11:34:26.306Z,97060.50
2023-03-19T11:36:08.868Z,97055.97
2023-03-19T11:37:29.311Z,97055.44
2023-03-19T11:38:53.066Z,97057.06
2023-03-19T11:40:16.130Z,97045.16
2023-03-19T11:41:23.900Z,97048.41
2023-03-19T11:42:53.993Z,97049.81
2023-03-19T11:44:16.454Z,97046.81
2023-03-19T11:45:40.784Z,97040.00
2023-03-19T11:47:17.840Z,97032.97
2023-03-19T11:48:44.401Z,97037.28
2023-03-19T11:50:18.005Z,97027.34
2023-03-19T11:51:28.799Z,97030.75
2023-03-19T11:52:41.769Z,97030.75
2023-03-19T11:54:09.738Z,97030.75
2023-03-19T11:55:39.337Z,97027.03
2023-03-19T11:56:44.875Z,97030.16
2023-03-19T11:58:01.662Z,97022.47
2023-03-19T11:59:27.349Z,97020.25
2023-03-19T12:00:48.956Z,97019.88
2023-03-19T12:02:06.537Z,97019.47
2023-03-19T12:03:39.135Z,97010.38
2023-03-19T12:04:50.981Z,97014.94
2023-03-19T12:06:00.026Z,97015.63
2023-03-19T12:07:24.764Z,97012.66
2023-03-19T12:08:26.581Z,97011.56
2023-03-19T12:09:38.216Z,97005.91
2023-03-19T12:10:42.780Z,96995.97
2023-03-19T12:11:54.736Z,97009.84
2023-03-19T12:13:17.971Z,97001.69
2023-03-19T12:14:25.602Z,96995.34
2023-03-19T12:15:53.845Z,96987.66
2023-03-19T12:17:04.950Z,96994.59
2023-03-19T12:18:20.342Z,96986.13
2023-03-19T12:19:47.829Z,96981.97
2023-03-19T12:21:07.964Z,96985.88
2023-03-19T12:22:21.839Z,96975.47
2023-03-19T12:23:29.874Z,96968.41
2023-03-19T12:24:59.753Z,96976.06
2023-03-19T12:26:34.931Z,96976.28
2023-03-19T12:27:42.845Z,96971.47
2023-03-19T12:29:23.606Z,96968.50
2023-03-19T12:30:57.439Z,96962.47
2023-03-19T12:32:17.532Z,96965.22
2023-03-19T12:33:24.862Z,96962.09
2023-03-19T12:34:34.264Z,96960.88
2023-03-19T12:35:41.996Z,96952.47
2023-03-19T12:36:54.969Z,96956.00
2023-03-19T12:38:00.004Z,96951.31
2023-03-19T12:39:11.442Z,96951.31
2023-03-19T12:40:41.966Z,96944.13
2023-03-19T12:41:47.360Z,96945.38
2023-03-19T12:42:48.890Z,96939.84
2023-03-19T12:44:14.985Z,96941.41